Time;durP1;ratioP1;P1;durP2;ratioP2;P2;SDS_P1;SDS_P2;PMS_P1;PMS_P2;Temp;Humidity;BMP_temperature;BMP_pressure;BME280_temperature;BME280_humidity;BME280_pressure;Samples;Min_cycle;Max_cycle;Signal;HPM_P1;HPM_P2
2023/03/23 00:01:13;;;;;;;5.25;3.33;;;;;;;;;;5013676;28;20026;-67
2023/03/23 00:03:39;;;;;;;4.20;3.45;;;;;;;;;;5013773;28;20385;-67
2023/03/23 00:06:06;;;;;;;4.82;3.38;;;;;;;;;;5014065;28;20107;-72
2023/03/23 00:08:37;;;;;;;6.20;3.50;;;;;;;;;;5013749;28;20026;-70
2023/03/23 00:11:04;;;;;;;8.50;3.38;;;;;;;;;;5014287;28;20033;-71
2023/03/23 00:13:30;;;;;;;4.03;3.00;;;;;;;;;;5014069;28;20034;-69
2023/03/23 00:15:56;;;;;;;4.63;3.05;;;;;;;;;;5013627;28;20032;-68
2023/03/23 00:18:23;;;;;;;3.78;3.20;;;;;;;;;;5013811;28;20033;-70
2023/03/23 00:20:58;;;;;;;4.85;2.92;;;;;;;;;;5013524;28;20060;-70
2023/03/23 00:23:25;;;;;;;5.18;3.10;;;;;;;;;;5013606;28;20502;-65
2023/03/23 00:25:58;;;;;;;4.18;3.22;;;;;;;;;;5013868;28;20046;-70
2023/03/23 00:28:26;;;;;;;5.05;3.22;;;;;;;;;;5013627;28;20053;-71
2023/03/23 00:31:00;;;;;;;4.35;3.25;;;;;;;;;;5013078;28;20033;-66
2023/03/23 00:33:27;;;;;;;4.22;3.20;;;;;;;;;;5012853;28;20493;-70
2023/03/23 00:35:54;;;;;;;4.55;3.08;;;;;;;;;;5013184;28;20038;-61
2023/03/23 00:38:24;;;;;;;4.50;3.15;;;;;;;;;;5013387;28;20351;-70
2023/03/23 00:40:51;;;;;;;5.63;3.00;;;;;;;;;;5013077;28;20026;-67
2023/03/23 00:43:18;;;;;;;3.40;3.05;;;;;;;;;;5012892;28;20041;-67
2023/03/23 00:45:44;;;;;;;5.30;3.42;;;;;;;;;;5012894;28;20477;-71
2023/03/23 00:48:12;;;;;;;3.58;2.90;;;;;;;;;;4995470;28;20034;-69
2023/03/23 00:50:38;;;;;;;4.18;3.20;;;;;;;;;;5012730;28;20488;-71
2023/03/23 00:53:04;;;;;;;4.47;3.10;;;;;;;;;;5013000;28;20038;-71
2023/03/23 00:55:30;;;;;;;3.88;2.80;;;;;;;;;;5013343;28;20029;-64
2023/03/23 00:57:56;;;;;;;5.25;3.17;;;;;;;;;;5015913;28;20061;-71
2023/03/23 01:00:22;;;;;;;4.30;3.20;;;;;;;;;;5019797;28;20473;-69
2023/03/23 01:02:51;;;;;;;4.68;3.17;;;;;;;;;;5019476;28;20548;-69
2023/03/23 01:05:17;;;;;;;4.30;3.13;;;;;;;;;;5019939;28;20105;-67
2023/03/23 01:07:43;;;;;;;3.60;3.10;;;;;;;;;;5019703;28;20037;-70
2023/03/23 01:10:12;;;;;;;5.05;3.30;;;;;;;;;;5018355;28;20567;-72
2023/03/23 01:12:39;;;;;;;4.13;3.10;;;;;;;;;;5017412;28;20641;-61
2023/03/23 01:15:05;;;;;;;5.18;3.15;;;;;;;;;;5017995;28;20026;-70
2023/03/23 01:17:31;;;;;;;4.20;3.10;;;;;;;;;;5018023;28;20029;-70
2023/03/23 01:19:57;;;;;;;6.35;3.35;;;;;;;;;;5019218;28;20030;-70
2023/03/23 01:22:23;;;;;;;4.05;3.10;;;;;;;;;;5019208;28;20021;-69
2023/03/23 01:24:48;;;;;;;3.70;3.08;;;;;;;;;;5018255;28;20053;-71
2023/03/23 01:27:14;;;;;;;4.32;3.20;;;;;;;;;;5017438;28;20496;-70
2023/03/23 01:29:39;;;;;;;6.65;2.90;;;;;;;;;;5020489;28;20116;-64
2023/03/23 01:32:05;;;;;;;5.07;3.38;;;;;;;;;;5027628;28;20025;-70
2023/03/23 01:34:31;;;;;;;8.00;3.55;;;;;;;;;;5026783;28;20049;-69
2023/03/23 01:36:57;;;;;;;5.45;3.35;;;;;;;;;;5023011;28;20037;-71
2023/03/23 01:39:22;;;;;;;4.70;3.20;;;;;;;;;;5017217;28;20026;-67
2023/03/23 01:41:48;;;;;;;3.42;2.90;;;;;;;;;;5018558;28;20054;-60
2023/03/23 01:44:16;;;;;;;5.13;3.40;;;;;;;;;;5017804;28;20473;-68
2023/03/23 01:46:43;;;;;;;6.15;2.92;;;;;;;;;;5018835;28;20026;-61
2023/03/23 01:49:25;;;;;;;4.80;2.90;;;;;;;;;;5018293;28;20069;-70
2023/03/23 01:51:55;;;;;;;4.80;3.17;;;;;;;;;;5018365;28;20036;-66
2023/03/23 01:54:23;;;;;;;4.88;3.00;;;;;;;;;;5018580;28;20037;-67
2023/03/23 01:56:56;;;;;;;4.35;3.35;;;;;;;;;;5018762;28;20385;-68
2023/03/23 01:59:23;;;;;;;4.25;3.13;;;;;;;;;;5018758;28;20029;-69
2023/03/23 02:01:52;;;;;;;4.35;3.10;;;;;;;;;;5018654;28;20032;-69
2023/03/23 02:04:19;;;;;;;4.40;2.97;;;;;;;;;;5018485;28;20030;-67
2023/03/23 02:06:45;;;;;;;3.92;2.92;;;;;;;;;;5018910;28;20109;-67
2023/03/23 02:09:21;;;;;;;4.35;2.95;;;;;;;;;;5016605;28;20025;-70
2023/03/23 02:11:49;;;;;;;4.22;3.17;;;;;;;;;;5015728;28;20030;-64
2023/03/23 02:14:16;;;;;;;3.95;3.08;;;;;;;;;;5015659;28;20064;-69
2023/03/23 02:17:16;;;;;;;4.70;3.08;;;;;;;;;;5015482;28;20041;-69
2023/03/23 02:20:00;;;;;;;3.65;2.72;;;;;;;;;;5002137;28;20092;-68
2023/03/23 02:22:37;;;;;;;3.88;2.58;;;;;;;;;;5015633;28;20079;-65
2023/03/23 02:25:23;;;;;;;3.97;2.83;;;;;;;;;;5015510;28;20033;-69
2023/03/23 02:27:54;;;;;;;4.07;3.30;;;;;;;;;;5015065;28;20385;-68
2023/03/23 02:30:25;;;;;;;4.07;3.00;;;;;;;;;;5015109;28;20029;-67
2023/03/23 02:33:08;;;;;;;3.75;2.75;;;;;;;;;;5015057;28;20034;-70
2023/03/23 02:35:50;;;;;;;3.58;3.10;;;;;;;;;;5014999;28;20482;-70
2023/03/23 02:38:28;;;;;;;3.70;2.80;;;;;;;;;;5014939;28;20113;-63
2023/03/23 02:40:55;;;;;;;3.72;2.90;;;;;;;;;;5014787;28;20033;-65
2023/03/23 02:43:25;;;;;;;7.68;2.97;;;;;;;;;;5014828;28;20556;-68
2023/03/23 02:45:52;;;;;;;4.75;3.33;;;;;;;;;;5015112;28;20036;-69
2023/03/23 02:48:22;;;;;;;3.97;2.83;;;;;;;;;;5014903;28;20478;-61
2023/03/23 02:50:51;;;;;;;3.13;2.78;;;;;;;;;;5014716;28;20080;-67
2023/03/23 02:53:21;;;;;;;5.72;3.22;;;;;;;;;;5014483;28;20041;-70
2023/03/23 02:55:48;;;;;;;3.65;2.78;;;;;;;;;;5014631;28;20056;-69
2023/03/23 02:58:14;;;;;;;3.42;3.05;;;;;;;;;;5014643;28;20080;-69
2023/03/23 03:00:41;;;;;;;3.33;3.00;;;;;;;;;;5014575;28;20076;-68
2023/03/23 03:03:14;;;;;;;3.85;2.92;;;;;;;;;;5014536;28;20034;-70
2023/03/23 03:05:59;;;;;;;3.95;3.03;;;;;;;;;;5014448;28;20029;-70
2023/03/23 03:08:51;;;;;;;3.45;2.95;;;;;;;;;;5014471;28;20100;-61
2023/03/23 03:11:22;;;;;;;3.78;3.00;;;;;;;;;;5014350;28;20074;-68
2023/03/23 03:14:03;;;;;;;4.63;2.92;;;;;;;;;;5014353;28;20061;-70
2023/03/23 03:16:47;;;;;;;4.03;2.72;;;;;;;;;;5014562;28;20030;-66
2023/03/23 03:19:25;;;;;;;5.15;3.28;;;;;;;;;;5014253;28;20018;-61
2023/03/23 03:21:54;;;;;;;3.20;2.90;;;;;;;;;;4996305;28;20057;-62
2023/03/23 03:24:23;;;;;;;4.72;2.88;;;;;;;;;;5014204;28;20022;-61
2023/03/23 03:26:52;;;;;;;4.03;3.00;;;;;;;;;;5014093;28;20018;-65
2023/03/23 03:29:25;;;;;;;3.60;2.72;;;;;;;;;;5014112;28;20072;-65
2023/03/23 03:31:55;;;;;;;4.03;2.95;;;;;;;;;;5013974;28;20026;-61
2023/03/23 03:34:21;;;;;;;5.68;3.17;;;;;;;;;;5014042;28;20072;-70
2023/03/23 03:36:50;;;;;;;5.03;2.85;;;;;;;;;;4996431;28;20029;-70
2023/03/23 03:39:17;;;;;;;3.72;2.92;;;;;;;;;;5013914;28;20058;-66
2023/03/23 03:41:44;;;;;;;3.13;2.70;;;;;;;;;;5013714;28;20121;-61
2023/03/23 03:44:10;;;;;;;3.92;3.13;;;;;;;;;;5014097;28;20025;-68
2023/03/23 03:46:36;;;;;;;3.97;3.05;;;;;;;;;;5013622;28;20026;-61
2023/03/23 03:49:06;;;;;;;3.38;2.97;;;;;;;;;;5013767;28;20088;-70
2023/03/23 03:51:34;;;;;;;4.22;3.00;;;;;;;;;;5013580;28;20030;-69
2023/03/23 03:54:00;;;;;;;4.95;2.90;;;;;;;;;;5013827;28;20381;-69
2023/03/23 03:56:26;;;;;;;3.60;2.78;;;;;;;;;;5013478;28;20036;-69
2023/03/23 03:58:52;;;;;;;3.42;2.60;;;;;;;;;;5013804;28;20030;-70
2023/03/23 04:01:22;;;;;;;3.33;2.70;;;;;;;;;;5013400;28;20477;-68
2023/03/23 04:03:47;;;;;;;;;;;;;;;;;;4996253;28;20477;-67
2023/03/23 04:06:13;;;;;;;4.47;2.95;;;;;;;;;;4996037;28;19957;-65
2023/03/23 04:08:41;;;;;;;4.03;3.15;;;;;;;;;;5013302;28;20034;-66
2023/03/23 04:11:08;;;;;;;3.42;2.80;;;;;;;;;;5013151;28;20532;-66
2023/03/23 04:13:34;;;;;;;4.63;3.22;;;;;;;;;;4995632;28;20367;-69
2023/03/23 04:16:00;;;;;;;4.82;2.80;;;;;;;;;;5013159;28;20088;-70
2023/03/23 04:18:26;;;;;;;4.45;3.20;;;;;;;;;;4995661;28;20029;-64
2023/03/23 04:20:52;;;;;;;3.42;2.65;;;;;;;;;;5013078;28;20018;-69
2023/03/23 04:23:21;;;;;;;3.65;2.50;;;;;;;;;;4995680;28;20029;-68
2023/03/23 04:25:48;;;;;;;3.90;3.05;;;;;;;;;;5013127;28;20037;-65
2023/03/23 04:28:16;;;;;;;3.20;2.90;;;;;;;;;;5013081;28;20109;-70
2023/03/23 04:30:42;;;;;;;3.22;2.92;;;;;;;;;;5013240;28;20026;-70
2023/03/23 04:33:14;;;;;;;2.80;2.58;;;;;;;;;;5012111;28;20034;-67
2023/03/23 04:35:45;;;;;;;4.22;2.72;;;;;;;;;;5013243;28;20076;-70
2023/03/23 04:38:12;;;;;;;3.10;2.72;;;;;;;;;;5012869;28;20053;-67
2023/03/23 04:40:40;;;;;;;3.38;2.67;;;;;;;;;;5012894;28;20030;-61
2023/03/23 04:43:06;;;;;;;4.45;3.08;;;;;;;;;;5012799;28;20104;-63
2023/03/23 04:45:33;;;;;;;4.50;2.50;;;;;;;;;;5012936;28;20036;-61
2023/03/23 04:48:01;;;;;;;5.15;2.97;;;;;;;;;;5012707;28;20026;-70
2023/03/23 04:50:33;;;;;;;3.92;2.90;;;;;;;;;;5012692;28;20121;-70
2023/03/23 04:53:03;;;;;;;4.60;3.20;;;;;;;;;;5012612;28;20503;-70
2023/03/23 04:55:35;;;;;;;;;;;;;;;;;;4996548;28;20029;-69
2023/03/23 04:58:03;;;;;;;3.03;2.60;;;;;;;;;;5011859;28;19952;-68
2023/03/23 05:00:28;;;;;;;3.65;2.90;;;;;;;;;;5010987;28;20026;-66
2023/03/23 05:02:55;;;;;;;3.25;2.80;;;;;;;;;;5010982;28;20112;-66
2023/03/23 05:05:22;;;;;;;3.88;2.78;;;;;;;;;;5011093;28;20034;-68
2023/03/23 05:07:48;;;;;;;3.13;2.60;;;;;;;;;;5010729;28;20033;-62
2023/03/23 05:10:15;;;;;;;3.60;2.97;;;;;;;;;;5010976;28;20022;-69
2023/03/23 05:12:41;;;;;;;3.65;2.78;;;;;;;;;;5010569;28;20481;-70
2023/03/23 05:15:09;;;;;;;6.80;3.38;;;;;;;;;;5010557;28;20474;-63
2023/03/23 05:17:35;;;;;;;3.15;2.78;;;;;;;;;;5010557;28;20026;-70
2023/03/23 05:20:04;;;;;;;4.95;3.42;;;;;;;;;;5010772;28;20037;-64
2023/03/23 05:22:32;;;;;;;3.60;3.03;;;;;;;;;;5012357;28;20504;-61
2023/03/23 05:24:58;;;;;;;2.83;2.35;;;;;;;;;;5012379;28;20072;-66
2023/03/23 05:27:27;;;;;;;3.63;2.80;;;;;;;;;;5012626;28;20030;-68
2023/03/23 05:29:53;;;;;;;2.65;2.45;;;;;;;;;;5012367;28;20189;-67
2023/03/23 05:32:19;;;;;;;3.53;2.83;;;;;;;;;;5012266;28;20220;-61
2023/03/23 05:34:46;;;;;;;3.75;2.95;;;;;;;;;;5012279;28;20030;-61
2023/03/23 05:37:13;;;;;;;5.60;2.85;;;;;;;;;;5012256;28;20037;-69
2023/03/23 05:39:39;;;;;;;3.63;2.70;;;;;;;;;;5012309;28;20041;-62
2023/03/23 05:42:06;;;;;;;3.05;2.65;;;;;;;;;;5012071;28;20045;-67
2023/03/23 05:44:32;;;;;;;3.35;2.88;;;;;;;;;;5014591;28;20068;-64
2023/03/23 05:46:57;;;;;;;3.80;2.70;;;;;;;;;;5015950;28;20501;-61
2023/03/23 05:49:24;;;;;;;3.15;2.85;;;;;;;;;;5015708;28;20121;-60
2023/03/23 05:51:49;;;;;;;4.40;3.03;;;;;;;;;;5015650;28;20026;-64
2023/03/23 05:54:16;;;;;;;3.08;2.65;;;;;;;;;;5015605;28;20066;-66
2023/03/23 05:56:42;;;;;;;3.50;3.10;;;;;;;;;;5015533;28;20104;-69
2023/03/23 05:59:09;;;;;;;4.60;2.72;;;;;;;;;;5015986;28;20413;-66
2023/03/23 06:01:35;;;;;;;3.88;2.92;;;;;;;;;;5015647;28;20037;-61
2023/03/23 06:04:01;;;;;;;4.00;2.70;;;;;;;;;;5015566;28;20114;-66
2023/03/23 06:06:31;;;;;;;3.13;2.72;;;;;;;;;;5015383;28;20029;-66
2023/03/23 06:08:57;;;;;;;3.33;2.72;;;;;;;;;;5015595;28;20030;-63
2023/03/23 06:11:24;;;;;;;4.82;2.80;;;;;;;;;;5014952;28;20025;-68
2023/03/23 06:13:50;;;;;;;4.03;2.78;;;;;;;;;;5014728;28;20064;-69
2023/03/23 06:16:16;;;;;;;3.40;2.90;;;;;;;;;;5014640;28;20428;-61
2023/03/23 06:18:42;;;;;;;3.30;2.67;;;;;;;;;;5015018;28;20030;-64
2023/03/23 06:21:09;;;;;;;3.13;2.78;;;;;;;;;;5015355;28;20048;-66
2023/03/23 06:23:34;;;;;;;3.03;2.65;;;;;;;;;;5015338;28;20060;-66
2023/03/23 06:26:05;;;;;;;3.25;2.70;;;;;;;;;;4997508;28;20077;-65
2023/03/23 06:28:30;;;;;;;;;;;;;;;;;;4981607;28;20030;-66
2023/03/23 06:31:07;;;;;;;3.30;2.65;;;;;;;;;;5013761;28;19921;-65
2023/03/23 06:33:37;;;;;;;3.63;2.95;;;;;;;;;;4997681;28;20057;-63
2023/03/23 06:36:04;;;;;;;5.40;2.97;;;;;;;;;;5014583;28;20022;-67
2023/03/23 06:38:33;;;;;;;4.22;2.97;;;;;;;;;;4980506;28;20030;-65
2023/03/23 06:40:58;;;;;;;3.70;2.83;;;;;;;;;;4996376;28;20169;-62
2023/03/23 06:43:24;;;;;;;3.15;2.85;;;;;;;;;;5013845;28;20117;-61
2023/03/23 06:45:51;;;;;;;4.00;3.28;;;;;;;;;;5014671;28;20033;-67
2023/03/23 06:48:17;;;;;;;3.50;2.88;;;;;;;;;;5014338;28;20097;-64
2023/03/23 06:50:46;;;;;;;4.45;2.90;;;;;;;;;;5014612;28;20033;-64
2023/03/23 06:53:12;;;;;;;3.95;2.95;;;;;;;;;;4996962;28;20030;-63
2023/03/23 06:55:38;;;;;;;3.72;2.90;;;;;;;;;;5013132;28;20045;-62
2023/03/23 06:58:05;;;;;;;3.45;3.10;;;;;;;;;;5014528;28;20021;-61
2023/03/23 07:00:32;;;;;;;4.95;2.90;;;;;;;;;;5014496;28;20054;-62
2023/03/23 07:02:58;;;;;;;3.85;2.90;;;;;;;;;;5014525;28;20018;-65
2023/03/23 07:05:24;;;;;;;2.97;2.67;;;;;;;;;;5014529;28;20535;-62
2023/03/23 07:07:50;;;;;;;3.15;2.63;;;;;;;;;;5014679;28;20026;-61
2023/03/23 07:10:16;;;;;;;3.33;2.92;;;;;;;;;;5014248;28;20018;-66
2023/03/23 07:12:42;;;;;;;3.75;2.95;;;;;;;;;;5014493;28;20037;-65
2023/03/23 07:15:10;;;;;;;3.55;2.55;;;;;;;;;;5014161;28;20133;-67
2023/03/23 07:17:36;;;;;;;4.13;2.83;;;;;;;;;;5013383;28;20029;-65
2023/03/23 07:20:04;;;;;;;2.90;2.47;;;;;;;;;;5014260;28;20022;-65
2023/03/23 07:22:30;;;;;;;3.53;2.70;;;;;;;;;;5014362;28;20385;-61
2023/03/23 07:24:56;;;;;;;5.07;3.03;;;;;;;;;;5014239;28;20477;-64
2023/03/23 07:27:22;;;;;;;5.15;2.97;;;;;;;;;;5014350;28;20157;-61
2023/03/23 07:29:47;;;;;;;4.38;2.70;;;;;;;;;;5014046;28;20081;-69
2023/03/23 07:32:13;;;;;;;2.72;2.47;;;;;;;;;;4996449;28;20038;-69
2023/03/23 07:34:39;;;;;;;3.78;2.92;;;;;;;;;;5014100;28;20022;-66
2023/03/23 07:37:05;;;;;;;2.90;2.55;;;;;;;;;;4996329;28;20496;-65
2023/03/23 07:39:31;;;;;;;3.25;2.67;;;;;;;;;;4996396;28;20022;-70
2023/03/23 07:41:57;;;;;;;3.65;2.88;;;;;;;;;;5013264;28;20108;-66
2023/03/23 07:44:23;;;;;;;4.68;2.47;;;;;;;;;;5013993;28;20037;-68
2023/03/23 07:46:48;;;;;;;2.80;2.60;;;;;;;;;;5013669;28;20504;-69
2023/03/23 07:49:14;;;;;;;3.90;2.72;;;;;;;;;;5012887;28;20490;-70
2023/03/23 07:51:40;;;;;;;4.75;2.70;;;;;;;;;;5019692;28;20108;-70
2023/03/23 07:54:09;;;;;;;3.47;2.83;;;;;;;;;;5017601;28;20528;-68
2023/03/23 07:56:35;;;;;;;2.88;2.58;;;;;;;;;;5018856;28;20030;-61
2023/03/23 07:59:02;;;;;;;3.00;2.70;;;;;;;;;;5018916;28;20216;-64
2023/03/23 08:01:29;;;;;;;2.95;2.60;;;;;;;;;;4998929;28;20029;-62
2023/03/23 08:03:57;;;;;;;2.97;2.67;;;;;;;;;;5018808;28;20022;-64
2023/03/23 08:06:23;;;;;;;3.88;2.90;;;;;;;;;;5018143;28;20056;-63
2023/03/23 08:08:50;;;;;;;4.18;2.97;;;;;;;;;;5017906;28;20444;-65
2023/03/23 08:11:18;;;;;;;3.05;2.72;;;;;;;;;;4999284;28;20029;-67
2023/03/23 08:13:45;;;;;;;3.30;2.55;;;;;;;;;;5012195;28;20037;-67
2023/03/23 08:16:10;;;;;;;2.95;2.45;;;;;;;;;;5019065;28;20167;-66
2023/03/23 08:18:37;;;;;;;3.15;2.78;;;;;;;;;;5020639;28;20108;-67
2023/03/23 08:21:09;;;;;;;3.20;2.75;;;;;;;;;;5024285;28;20021;-61
2023/03/23 08:23:36;;;;;;;5.47;2.60;;;;;;;;;;5022927;28;20037;-66
2023/03/23 08:26:04;;;;;;;3.90;2.72;;;;;;;;;;4995414;28;20026;-62
2023/03/23 08:28:30;;;;;;;9.85;2.97;;;;;;;;;;5012037;28;20026;-63
2023/03/23 08:30:55;;;;;;;3.22;2.90;;;;;;;;;;5018253;28;20043;-62
2023/03/23 08:33:21;;;;;;;3.95;3.60;;;;;;;;;;5009977;28;20508;-65
2023/03/23 08:35:57;;;;;;;4.60;3.58;;;;;;;;;;4993946;28;20030;-64
2023/03/23 08:38:23;;;;;;;7.05;3.90;;;;;;;;;;5011594;28;20021;-65
2023/03/23 08:40:50;;;;;;;5.60;3.60;;;;;;;;;;5011299;28;20140;-64
2023/03/23 08:43:16;;;;;;;5.15;4.25;;;;;;;;;;5011257;28;20041;-63
2023/03/23 08:45:42;;;;;;;5.25;4.47;;;;;;;;;;5011076;28;20041;-63
2023/03/23 08:48:08;;;;;;;7.07;4.32;;;;;;;;;;4993604;28;20030;-62
2023/03/23 08:50:35;;;;;;;5.05;4.10;;;;;;;;;;5011091;28;20030;-65
2023/03/23 08:53:01;;;;;;;13.82;4.47;;;;;;;;;;5010974;28;20132;-65
2023/03/23 08:55:28;;;;;;;6.05;5.00;;;;;;;;;;5011139;28;20026;-65
2023/03/23 08:57:54;;;;;;;4.68;4.00;;;;;;;;;;5011307;28;20053;-63
2023/03/23 09:00:23;;;;;;;5.22;4.72;;;;;;;;;;4993450;28;20428;-64
2023/03/23 09:02:52;;;;;;;5.18;4.25;;;;;;;;;;5010878;28;20029;-61
2023/03/23 09:05:21;;;;;;;8.45;4.50;;;;;;;;;;5011075;28;20060;-65
2023/03/23 09:07:49;;;;;;;7.07;4.70;;;;;;;;;;5011007;28;20121;-66
2023/03/23 09:10:17;;;;;;;5.85;4.30;;;;;;;;;;4993312;28;20026;-65
2023/03/23 09:12:44;;;;;;;5.88;4.57;;;;;;;;;;5010999;28;20063;-65
2023/03/23 09:15:12;;;;;;;6.30;4.10;;;;;;;;;;4993296;28;20033;-65
2023/03/23 09:17:45;;;;;;;4.40;3.97;;;;;;;;;;5010833;28;20018;-65
2023/03/23 09:20:13;;;;;;;5.20;4.00;;;;;;;;;;5018133;28;20033;-64
2023/03/23 09:22:42;;;;;;;6.25;4.03;;;;;;;;;;5034396;28;20041;-64
2023/03/23 09:25:08;;;;;;;4.93;3.78;;;;;;;;;;5034452;28;20029;-65
2023/03/23 09:27:36;;;;;;;5.35;3.83;;;;;;;;;;5016875;28;20021;-63
2023/03/23 09:30:06;;;;;;;4.10;3.70;;;;;;;;;;5034370;28;20088;-63
2023/03/23 09:32:34;;;;;;;6.22;3.60;;;;;;;;;;5034247;28;20047;-65
2023/03/23 09:35:01;;;;;;;4.18;3.78;;;;;;;;;;5034151;28;20117;-63
2023/03/23 09:37:28;;;;;;;5.95;3.70;;;;;;;;;;5010414;28;20104;-64
2023/03/23 09:39:54;;;;;;;5.70;3.50;;;;;;;;;;5014563;28;20061;-64
2023/03/23 09:42:47;;;;;;;12.50;3.67;;;;;;;;;;5014050;28;20077;-66
2023/03/23 09:45:28;;;;;;;4.10;3.45;;;;;;;;;;5014398;28;20061;-65
2023/03/23 09:48:32;;;;;;;3.67;3.35;;;;;;;;;;5014443;28;20057;-62
2023/03/23 09:51:08;;;;;;;4.07;3.22;;;;;;;;;;5014517;28;20082;-64
2023/03/23 09:53:41;;;;;;;3.40;3.10;;;;;;;;;;5014111;28;20398;-63
2023/03/23 09:56:14;;;;;;;5.47;3.38;;;;;;;;;;5014216;28;20041;-62
2023/03/23 09:58:55;;;;;;;4.05;3.42;;;;;;;;;;5014193;28;20053;-63
2023/03/23 10:01:48;;;;;;;4.70;3.28;;;;;;;;;;5014422;28;20029;-63
2023/03/23 10:04:46;;;;;;;4.03;3.40;;;;;;;;;;5012574;28;20072;-64
2023/03/23 10:07:16;;;;;;;3.35;3.05;;;;;;;;;;4986995;28;20034;-64
2023/03/23 10:09:45;;;;;;;3.58;3.17;;;;;;;;;;5014250;28;20492;-65
2023/03/23 10:12:23;;;;;;;3.60;3.30;;;;;;;;;;5012854;28;20046;-65
2023/03/23 10:15:08;;;;;;;5.43;3.20;;;;;;;;;;5013332;28;20026;-64
2023/03/23 10:17:44;;;;;;;4.82;2.97;;;;;;;;;;5013802;28;20450;-64
2023/03/23 10:20:14;;;;;;;5.38;3.33;;;;;;;;;;5014188;28;20034;-62
2023/03/23 10:22:58;;;;;;;3.95;3.20;;;;;;;;;;5012311;28;20026;-63
2023/03/23 10:25:28;;;;;;;5.93;2.97;;;;;;;;;;5014048;28;20030;-64
2023/03/23 10:28:05;;;;;;;;;;;;;;;;;;5013985;28;20032;-64
2023/03/23 10:30:54;;;;;;;;;;;;;;;;;;5012947;28;19923;-63
2023/03/23 10:33:30;;;;;;;;;;;;;;;;;;5003052;28;19922;-63
2023/03/23 10:36:00;;;;;;;;;;;;;;;;;;5013992;28;19917;-64
2023/03/23 10:38:37;;;;;;;;;;;;;;;;;;5013840;28;19913;-63
2023/03/23 10:41:17;;;;;;;;;;;;;;;;;;5011444;28;19964;-64
2023/03/23 10:43:43;;;;;;;;;;;;;;;;;;5017012;28;19917;-63
2023/03/23 10:46:16;;;;;;;;;;;;;;;;;;5013893;28;20610;-63
2023/03/23 10:48:44;;;;;;;;;;;;;;;;;;4996011;28;19917;-63
2023/03/23 10:51:12;;;;;;;;;;;;;;;;;;5021898;28;19921;-64
2023/03/23 10:53:49;;;;;;;;;;;;;;;;;;5011535;28;19941;-63
2023/03/23 10:56:33;;;;;;;;;;;;;;;;;;5011256;28;19928;-63
2023/03/23 10:58:59;;;;;;;;;;;;;;;;;;5021264;28;19927;-63
2023/03/23 11:01:32;;;;;;;;;;;;;;;;;;5033160;28;20011;-63
2023/03/23 11:03:59;;;;;;;;;;;;;;;;;;5033369;28;19917;-63
2023/03/23 11:06:27;;;;;;;;;;;;;;;;;;5033045;28;20020;-63
2023/03/23 11:08:55;;;;;;;;;;;;;;;;;;5033355;28;19996;-64
2023/03/23 11:11:25;;;;;;;;;;;;;;;;;;5022484;28;20380;-64
2023/03/23 11:13:57;;;;;;;;;;;;;;;;;;5013119;28;19914;-65
2023/03/23 11:16:29;;;;;;;;;;;;;;;;;;5013133;28;19925;-64
2023/03/23 11:18:54;;;;;;;;;;;;;;;;;;5012814;28;20443;-64
2023/03/23 11:21:21;;;;;;;;;;;;;;;;;;5016485;28;20017;-64
2023/03/23 11:23:53;;;;;;;;;;;;;;;;;;5012048;28;20645;-63
2023/03/23 11:26:21;;;;;;;;;;;;;;;;;;4998479;28;19928;-64
2023/03/23 11:29:03;;;;;;;;;;;;;;;;;;5012775;28;20381;-65
2023/03/23 11:31:33;;;;;;;;;;;;;;;;;;5014428;28;19991;-64
2023/03/23 11:34:24;;;;;;;;;;;;;;;;;;5024044;28;19914;-64
2023/03/23 11:36:55;;;;;;;;;;;;;;;;;;5008674;28;19917;-65
2023/03/23 11:39:21;;;;;;;;;;;;;;;;;;5012489;28;20396;-64
2023/03/23 11:41:46;;;;;;;;;;;;;;;;;;5011720;28;19928;-64
2023/03/23 11:44:12;;;;;;;;;;;;;;;;;;5011227;28;19917;-63
2023/03/23 11:46:41;;;;;;;;;;;;;;;;;;5011046;28;20392;-64
2023/03/23 11:49:29;;;;;;;;;;;;;;;;;;5012554;28;19921;-64
2023/03/23 11:52:02;;;;;;;;;;;;;;;;;;5001819;28;19936;-64
2023/03/23 11:54:37;;;;;;;;;;;;;;;;;;5012747;28;19917;-63
2023/03/23 11:57:08;;;;;;;;;;;;;;;;;;5014354;28;20441;-64
2023/03/23 11:59:35;;;;;;;;;;;;;;;;;;5012199;28;19955;-65
2023/03/23 12:02:16;;;;;;;;;;;;;;;;;;5008231;28;20012;-64
2023/03/23 12:04:41;;;;;;;;;;;;;;;;;;5029202;28;19995;-64
2023/03/23 12:07:26;;;;;;;;;;;;;;;;;;5031987;28;20016;-64
2023/03/23 12:09:51;;;;;;;;;;;;;;;;;;5031905;28;19956;-64
2023/03/23 12:12:34;;;;;;;;;;;;;;;;;;5031606;28;19959;-63
2023/03/23 12:14:59;;;;;;;;;;;;;;;;;;5031787;28;20000;-64
2023/03/23 12:17:45;;;;;;;;;;;;;;;;;;5031662;28;20020;-65
2023/03/23 12:20:21;;;;;;;;;;;;;;;;;;5031183;28;20369;-65
2023/03/23 12:22:54;;;;;;;;;;;;;;;;;;5031562;28;20008;-65
2023/03/23 12:25:37;;;;;;;;;;;;;;;;;;5031573;28;19923;-64
2023/03/23 12:28:22;;;;;;;;;;;;;;;;;;5013986;28;19917;-63
2023/03/23 12:30:47;;;;;;;;;;;;;;;;;;5031597;28;20380;-63
2023/03/23 12:33:18;;;;;;;;;;;;;;;;;;5031167;28;19919;-63
2023/03/23 12:36:09;;;;;;;;;;;;;;;;;;5031832;28;20414;-64
2023/03/23 12:38:35;;;;;;;;;;;;;;;;;;5027400;28;20410;-63
2023/03/23 12:41:03;;;;;;;;;;;;;;;;;;5031197;28;19917;-64
2023/03/23 12:43:47;;;;;;;;;;;;;;;;;;5031220;28;19963;-64
2023/03/23 12:46:19;;;;;;;;;;;;;;;;;;5031315;28;20364;-65
2023/03/23 12:49:04;;;;;;;;;;;;;;;;;;5031123;28;19917;-64
2023/03/23 12:51:33;;;;;;;;;;;;;;;;;;5030597;28;19924;-64
2023/03/23 12:53:58;;;;;;;;;;;;;;;;;;5029233;28;19917;-64
2023/03/23 12:56:30;;;;;;;;;;;;;;;;;;5031244;28;19920;-64
2023/03/23 12:59:14;;;;;;;;;;;;;;;;;;5031111;28;20366;-64
2023/03/23 13:01:42;;;;;;;;;;;;;;;;;;5031304;28;19959;-64
2023/03/23 13:04:10;;;;;;;;;;;;;;;;;;5030993;28;20068;-64
2023/03/23 13:06:37;;;;;;;;;;;;;;;;;;5030404;28;19928;-63
2023/03/23 13:09:03;;;;;;;;;;;;;;;;;;5014333;28;20545;-63
2023/03/23 13:11:38;;;;;;;;;;;;;;;;;;5010587;28;19921;-64
2023/03/23 13:14:04;;;;;;;;;;;;;;;;;;5011312;28;19943;-64
2023/03/23 13:16:36;;;;;;;;;;;;;;;;;;5011170;28;19913;-64
2023/03/23 13:19:02;;;;;;;;;;;;;;;;;;5011383;28;20365;-64
2023/03/23 13:21:30;;;;;;;;;;;;;;;;;;5011086;28;19945;-64
2023/03/23 13:23:58;;;;;;;;;;;;;;;;;;5011270;28;19917;-64
2023/03/23 13:26:24;;;;;;;;;;;;;;;;;;5011490;28;19917;-64
2023/03/23 13:28:53;;;;;;;;;;;;;;;;;;5010891;28;20499;-64
2023/03/23 13:31:29;;;;;;;;;;;;;;;;;;5009709;28;19914;-64
2023/03/23 13:33:58;;;;;;;;;;;;;;;;;;5010623;28;19918;-64
2023/03/23 13:36:32;;;;;;;;;;;;;;;;;;5011514;28;19917;-64
2023/03/23 13:38:59;;;;;;;;;;;;;;;;;;5010031;28;19920;-64
2023/03/23 13:41:25;;;;;;;;;;;;;;;;;;5009557;28;19917;-64
2023/03/23 13:43:51;;;;;;;;;;;;;;;;;;5011022;28;20008;-64
2023/03/23 13:46:30;;;;;;;;;;;;;;;;;;5009744;28;20056;-64
2023/03/23 13:49:10;;;;;;;;;;;;;;;;;;5010905;28;20411;-64
2023/03/23 13:51:49;;;;;;;;;;;;;;;;;;5010899;28;19918;-66
2023/03/23 13:54:20;;;;;;;;;;;;;;;;;;5010858;28;19917;-66
2023/03/23 13:56:48;;;;;;;;;;;;;;;;;;5011311;28;20476;-66
2023/03/23 13:59:15;;;;;;;;;;;;;;;;;;5010779;28;19913;-66
2023/03/23 14:01:41;;;;;;;;;;;;;;;;;;5009660;28;19918;-67
2023/03/23 14:04:10;;;;;;;;;;;;;;;;;;5011140;28;19970;-67
2023/03/23 14:06:36;;;;;;;;;;;;;;;;;;5013242;28;20396;-65
2023/03/23 14:09:11;;;;;;;;;;;;;;;;;;5014636;28;20288;-67
2023/03/23 14:11:46;;;;;;;;;;;;;;;;;;5014259;28;19914;-67
2023/03/23 14:14:17;;;;;;;;;;;;;;;;;;5014557;28;20284;-67
2023/03/23 14:16:44;;;;;;;;;;;;;;;;;;5014200;28;19924;-68
2023/03/23 14:19:28;;;;;;;;;;;;;;;;;;5014616;28;19913;-67
2023/03/23 14:21:58;;;;;;;;;;;;;;;;;;5012914;28;20288;-67
2023/03/23 14:24:29;;;;;;;;;;;;;;;;;;5014352;28;19917;-67
2023/03/23 14:27:12;;;;;;;;;;;;;;;;;;5014371;28;19936;-66
2023/03/23 14:29:37;;;;;;;;;;;;;;;;;;5013603;28;19983;-66
2023/03/23 14:32:04;;;;;;;;;;;;;;;;;;5014022;28;19918;-66
2023/03/23 14:34:32;;;;;;;;;;;;;;;;;;5012458;28;19932;-69
2023/03/23 14:36:58;;;;;;;;;;;;;;;;;;5013923;28;20012;-67
2023/03/23 14:39:26;;;;;;;;;;;;;;;;;;5014070;28;19952;-68
2023/03/23 14:41:53;;;;;;;;;;;;;;;;;;5013804;28;19917;-68
2023/03/23 14:44:27;;;;;;;;;;;;;;;;;;5013751;28;19951;-69
2023/03/23 14:46:53;;;;;;;;;;;;;;;;;;5013824;28;19917;-68
2023/03/23 14:49:24;;;;;;;;;;;;;;;;;;5013567;28;19921;-67
2023/03/23 14:51:51;;;;;;;;;;;;;;;;;;5013998;28;20410;-67
2023/03/23 14:54:21;;;;;;;;;;;;;;;;;;5012108;28;20284;-66
2023/03/23 14:56:46;;;;;;;;;;;;;;;;;;5013535;28;20067;-68
2023/03/23 14:59:12;;;;;;;;;;;;;;;;;;5013536;28;20016;-68
2023/03/23 15:01:38;;;;;;;;;;;;;;;;;;5013526;28;19913;-68
2023/03/23 15:04:13;;;;;;;;;;;;;;;;;;5013442;28;19913;-68
2023/03/23 15:06:39;;;;;;;;;;;;;;;;;;5013072;28;20316;-68
2023/03/23 15:09:11;;;;;;;;;;;;;;;;;;5012876;28;20000;-68
2023/03/23 15:11:39;;;;;;;;;;;;;;;;;;5012427;28;19917;-68
2023/03/23 15:14:26;;;;;;;;;;;;;;;;;;5013265;28;20454;-68
2023/03/23 15:16:52;;;;;;;;;;;;;;;;;;5012854;28;19929;-68
2023/03/23 15:19:23;;;;;;;;;;;;;;;;;;4995681;28;19963;-68
2023/03/23 15:21:51;;;;;;;;;;;;;;;;;;5013149;28;19917;-69
2023/03/23 15:24:20;;;;;;;;;;;;;;;;;;5013318;28;19920;-68
2023/03/23 15:26:45;;;;;;;;;;;;;;;;;;5011616;28;19923;-68
2023/03/23 15:29:16;;;;;;;;;;;;;;;;;;4993646;28;19918;-67
2023/03/23 15:31:43;;;;;;;;;;;;;;;;;;5010345;28;19913;-70
2023/03/23 15:34:20;;;;;;;;;;;;;;;;;;5010750;28;20012;-69
2023/03/23 15:36:45;;;;;;;;;;;;;;;;;;5011625;28;19913;-68